createdAt,value
2018-03-31T00:03:46.754Z,11.40
2018-03-31T00:08:49.011Z,12.03
2018-03-31T00:13:50.972Z,12.13
2018-03-31T00:18:53.228Z,12.40
2018-03-31T00:23:55.169Z,11.80
2018-03-31T00:28:57.095Z,11.00
2018-03-31T00:33:59.065Z,10.73
2018-03-31T00:39:01.068Z,11.93
2018-03-31T00:44:04.147Z,11.63
2018-03-31T00:49:06.241Z,11.70
2018-03-31T00:54:08.246Z,11.50
2018-03-31T00:59:10.242Z,11.87
2018-03-31T01:04:12.236Z,12.90
2018-03-31T01:09:14.232Z,11.93
2018-03-31T01:14:16.223Z,12.90
2018-03-31T01:19:18.156Z,12.03
2018-03-31T01:24:20.098Z,12.57
2018-03-31T01:29:22.050Z,13.23
2018-03-31T01:34:23.975Z,12.73
2018-03-31T01:39:25.913Z,13.50
2018-03-31T01:44:27.876Z,13.07
2018-03-31T01:49:29.823Z,13.17
2018-03-31T01:54:31.829Z,13.13
2018-03-31T01:59:33.786Z,13.83
2018-03-31T02:04:35.788Z,12.67
2018-03-31T02:09:37.783Z,13.00
2018-03-31T02:14:39.738Z,13.10
2018-03-31T02:19:41.700Z,13.40
2018-03-31T02:24:43.650Z,13.17
2018-03-31T02:29:45.572Z,13.97
2018-03-31T02:34:47.491Z,13.30
2018-03-31T02:39:49.426Z,13.03
2018-03-31T02:44:51.380Z,13.10
2018-03-31T02:49:53.306Z,14.40
2018-03-31T02:54:55.257Z,13.33
2018-03-31T02:59:57.203Z,13.70
2018-03-31T03:04:59.243Z,13.97
2018-03-31T03:10:01.276Z,13.93
2018-03-31T03:15:03.386Z,13.90
2018-03-31T03:20:05.342Z,14.47
2018-03-31T03:25:07.270Z,12.73
2018-03-31T03:30:09.190Z,14.17
2018-03-31T03:35:11.218Z,13.00
2018-03-31T03:40:13.233Z,13.63
2018-03-31T03:45:15.200Z,13.10
2018-03-31T03:50:17.146Z,14.20
2018-03-31T03:55:19.200Z,14.07
2018-03-31T04:00:21.122Z,12.13
2018-03-31T04:05:23.113Z,13.83
2018-03-31T04:10:25.048Z,12.93
2018-03-31T04:15:26.975Z,13.33
2018-03-31T04:20:28.963Z,13.87
2018-03-31T04:25:30.878Z,13.20
2018-03-31T04:30:32.805Z,12.77
2018-03-31T04:35:34.713Z,12.07
2018-03-31T04:40:37.598Z,12.13
2018-03-31T04:45:39.546Z,12.83
2018-03-31T04:50:41.684Z,12.70
2018-03-31T04:55:43.786Z,11.33
2018-03-31T05:00:45.803Z,13.60
2018-03-31T05:05:47.794Z,12.57
2018-03-31T05:10:49.778Z,13.20
2018-03-31T05:15:51.719Z,12.23
2018-03-31T05:20:53.656Z,13.07
2018-03-31T05:25:59.593Z,12.67
2018-03-31T05:31:01.758Z,12.87
2018-03-31T05:36:03.696Z,13.60
2018-03-31T05:41:05.630Z,13.47
2018-03-31T05:46:07.580Z,12.97
2018-03-31T05:51:09.550Z,13.87
2018-03-31T05:56:11.658Z,14.67
2018-03-31T06:01:13.886Z,14.30
2018-03-31T06:06:15.814Z,15.50
2018-03-31T06:11:17.746Z,16.17
2018-03-31T06:16:19.778Z,17.37
2018-03-31T06:21:21.769Z,17.70
2018-03-31T06:26:23.726Z,18.87
2018-03-31T06:31:25.654Z,17.37
2018-03-31T06:36:27.644Z,17.30
2018-03-31T06:41:29.572Z,18.20
2018-03-31T06:46:31.527Z,19.30
2018-03-31T06:51:33.468Z,19.00
2018-03-31T06:56:35.411Z,18.97
2018-03-31T07:01:37.339Z,20.57
2018-03-31T07:06:39.295Z,19.67
2018-03-31T07:11:42.706Z,21.10
2018-03-31T07:16:44.637Z,20.90
2018-03-31T07:21:46.605Z,20.93
2018-03-31T07:26:48.550Z,22.17
2018-03-31T07:31:51.527Z,21.47
2018-03-31T07:36:53.502Z,21.33
2018-03-31T07:41:55.529Z,21.07
2018-03-31T07:46:57.664Z,22.00
2018-03-31T07:51:59.853Z,22.60
2018-03-31T07:57:01.881Z,20.67
2018-03-31T08:02:03.835Z,21.67
2018-03-31T08:07:07.533Z,23.53
2018-03-31T08:12:09.826Z,20.77
2018-03-31T08:17:11.749Z,20.33
2018-03-31T08:22:13.656Z,20.33
2018-03-31T08:27:15.621Z,20.27
2018-03-31T08:32:17.603Z,22.37
2018-03-31T08:37:19.574Z,18.90
2018-03-31T08:42:21.497Z,19.50
2018-03-31T08:47:23.408Z,17.37
2018-03-31T08:52:25.314Z,18.83
2018-03-31T08:57:27.417Z,16.73
2018-03-31T09:02:29.329Z,16.17
2018-03-31T09:07:31.344Z,16.87
2018-03-31T09:12:33.267Z,18.80
2018-03-31T09:17:35.207Z,18.10
2018-03-31T09:22:37.477Z,18.30
2018-03-31T09:27:39.463Z,19.60
2018-03-31T09:32:41.392Z,19.80
2018-03-31T09:37:43.314Z,19.00
2018-03-31T09:42:45.247Z,20.10
2018-03-31T09:47:48.255Z,20.73
2018-03-31T09:52:50.198Z,20.80
2018-03-31T09:57:52.140Z,19.77
2018-03-31T10:02:54.115Z,20.23
2018-03-31T10:07:56.056Z,21.17
2018-03-31T10:12:58.006Z,21.20
2018-03-31T10:17:59.983Z,21.97
2018-03-31T10:23:01.920Z,19.80
2018-03-31T10:28:03.838Z,20.73
2018-03-31T10:33:05.768Z,22.13
2018-03-31T10:38:07.707Z,22.17
2018-03-31T10:43:09.616Z,21.47
2018-03-31T10:48:11.553Z,21.23
2018-03-31T10:53:13.487Z,24.43
2018-03-31T10:58:15.401Z,22.10
2018-03-31T11:03:17.408Z,22.63
2018-03-31T11:08:19.479Z,23.40
2018-03-31T11:13:21.449Z,22.13
2018-03-31T11:18:23.369Z,23.40
2018-03-31T11:23:25.550Z,23.20
2018-03-31T11:28:27.478Z,22.77
2018-03-31T11:33:29.390Z,20.87
2018-03-31T11:38:31.327Z,20.40
2018-03-31T11:43:33.229Z,20.17
2018-03-31T11:48:35.191Z,19.37
2018-03-31T11:53:37.230Z,20.40
2018-03-31T11:58:40.167Z,18.77
2018-03-31T12:03:42.146Z,20.43
2018-03-31T12:08:44.158Z,19.80
2018-03-31T12:13:46.099Z,18.97
2018-03-31T12:18:48.028Z,18.07
2018-03-31T12:23:50.587Z,18.40
2018-03-31T12:28:52.725Z,17.57
2018-03-31T12:33:54.673Z,18.33
2018-03-31T12:38:56.584Z,19.83
2018-03-31T12:43:58.505Z,18.60
2018-03-31T12:49:00.409Z,19.57
2018-03-31T12:54:02.327Z,18.83
2018-03-31T12:59:04.343Z,17.80
2018-03-31T13:04:06.252Z,19.03
2018-03-31T13:09:08.254Z,18.77
2018-03-31T13:14:10.201Z,18.83
2018-03-31T13:19:12.143Z,18.53
2018-03-31T13:24:14.073Z,19.63
2018-03-31T13:29:16.033Z,19.60
2018-03-31T13:34:17.989Z,20.40
2018-03-31T13:39:19.945Z,21.00
2018-03-31T13:44:21.933Z,20.33
2018-03-31T13:49:25.059Z,20.23
2018-03-31T13:54:26.996Z,20.80
2018-03-31T13:59:28.909Z,20.23
2018-03-31T14:04:34.069Z,21.90
2018-03-31T14:09:37.811Z,17.53
2018-03-31T14:14:39.816Z,22.50
2018-03-31T14:19:41.734Z,19.17
2018-03-31T14:24:43.658Z,18.30
2018-03-31T14:29:45.610Z,24.17
2018-03-31T14:34:47.534Z,22.63
2018-03-31T14:39:49.486Z,25.33
2018-03-31T14:44:51.479Z,22.57
2018-03-31T14:49:53.436Z,24.70
2018-03-31T14:54:55.366Z,26.77
2018-03-31T14:59:57.464Z,25.43
2018-03-31T15:04:59.420Z,26.57
2018-03-31T15:10:01.344Z,27.00
2018-03-31T15:15:03.258Z,29.57
2018-03-31T15:20:06.175Z,27.73
2018-03-31T15:25:08.086Z,34.00
2018-03-31T15:30:10.010Z,32.83
2018-03-31T15:35:11.938Z,31.70
2018-03-31T15:40:13.898Z,29.93
2018-03-31T15:45:15.832Z,31.70
2018-03-31T15:50:17.795Z,26.23
2018-03-31T15:55:19.786Z,33.77
2018-03-31T16:00:21.829Z,32.30
2018-03-31T16:05:23.804Z,35.80
2018-03-31T16:10:25.793Z,32.63
2018-03-31T16:15:27.758Z,38.23
2018-03-31T16:20:29.680Z,34.40
2018-03-31T16:25:31.612Z,35.13
2018-03-31T16:30:34.535Z,36.80
2018-03-31T16:35:36.519Z,37.57
2018-03-31T16:40:38.472Z,37.63
2018-03-31T16:45:40.407Z,39.63
2018-03-31T16:50:42.393Z,41.60
2018-03-31T16:55:44.349Z,43.57
2018-03-31T17:00:46.572Z,42.50
2018-03-31T17:05:48.475Z,38.70
2018-03-31T17:10:50.406Z,40.23
2018-03-31T17:15:52.443Z,43.33
2018-03-31T17:20:54.429Z,42.67
2018-03-31T17:25:56.399Z,39.70
2018-03-31T17:30:58.350Z,47.23
2018-03-31T17:36:00.611Z,44.20
2018-03-31T17:41:02.662Z,44.07
2018-03-31T17:46:04.618Z,41.50
2018-03-31T17:51:06.566Z,40.03
2018-03-31T17:56:08.496Z,45.10
2018-03-31T18:01:10.438Z,46.97
2018-03-31T18:06:12.419Z,42.27
2018-03-31T18:11:14.381Z,44.97
2018-03-31T18:16:16.354Z,41.37
2018-03-31T18:21:18.277Z,45.93
2018-03-31T18:26:20.248Z,44.73
2018-03-31T18:31:22.341Z,43.50
2018-03-31T18:36:24.313Z,39.30
2018-03-31T18:41:26.863Z,42.63
2018-03-31T18:46:28.785Z,38.50
2018-03-31T18:51:30.766Z,35.43
2018-03-31T18:56:32.738Z,41.77
2018-03-31T19:01:34.686Z,38.37
2018-03-31T19:06:38.775Z,40.33
2018-03-31T19:11:42.933Z,36.23
2018-03-31T19:16:50.643Z,39.67
2018-03-31T19:21:52.622Z,39.37
2018-03-31T19:26:55.178Z,38.77
2018-03-31T19:31:57.151Z,39.37
2018-03-31T19:36:59.232Z,48.83
2018-03-31T19:42:01.195Z,39.10
2018-03-31T19:47:03.142Z,40.47
2018-03-31T19:52:05.056Z,35.90
2018-03-31T19:57:07.006Z,37.13
2018-03-31T20:02:09.131Z,36.70
2018-03-31T20:07:11.058Z,31.57
2018-03-31T20:12:13.062Z,30.73
2018-03-31T20:17:15.671Z,35.40
2018-03-31T20:22:17.622Z,33.60
2018-03-31T20:27:19.761Z,32.77
2018-03-31T20:32:21.745Z,33.63
2018-03-31T20:37:23.835Z,29.27
2018-03-31T20:42:25.797Z,31.47
2018-03-31T20:47:27.729Z,34.27
2018-03-31T20:52:29.655Z,32.57
2018-03-31T20:57:31.593Z,34.77
2018-03-31T21:02:33.525Z,32.37
2018-03-31T21:07:35.601Z,29.63
2018-03-31T21:12:37.590Z,30.97
2018-03-31T21:17:39.706Z,31.30
2018-03-31T21:22:41.671Z,30.83
2018-03-31T21:27:43.649Z,29.53
2018-03-31T21:32:45.921Z,33.60
2018-03-31T21:37:47.828Z,30.10
2018-03-31T21:42:49.766Z,32.40
2018-03-31T21:47:54.271Z,29.70
2018-03-31T21:52:59.553Z,28.70
2018-03-31T21:58:01.521Z,25.80
2018-03-31T22:03:04.815Z,25.10
2018-03-31T22:08:09.136Z,27.27
2018-03-31T22:13:17.328Z,28.33
2018-03-31T22:18:19.762Z,25.53
2018-03-31T22:23:21.763Z,23.27
2018-03-31T22:28:26.113Z,23.60
2018-03-31T22:33:28.135Z,22.10
2018-03-31T22:38:32.089Z,21.93
2018-03-31T22:43:37.163Z,22.13
2018-03-31T22:48:40.002Z,20.83
2018-03-31T22:53:42.530Z,15.47
2018-03-31T22:58:45.086Z,15.57
2018-03-31T23:03:47.161Z,16.17
2018-03-31T23:08:49.196Z,16.23
2018-03-31T23:13:51.213Z,16.60
2018-03-31T23:18:53.209Z,17.60
2018-03-31T23:23:55.255Z,15.37
2018-03-31T23:28:58.568Z,14.90
2018-03-31T23:34:00.505Z,14.33
2018-03-31T23:39:02.447Z,13.57
2018-03-31T23:44:04.420Z,14.37
2018-03-31T23:49:06.561Z,13.67
2018-03-31T23:54:08.711Z,11.87
2018-03-31T23:59:10.693Z,13.03
